Terminal Aerodrome Forecast
Issued by NWS

Home | Current Version | Previous Version | Text Only | Print | Product List | Glossary On
Versions: 1 2 3 4 5 6 7 8 9 10 11 12 13 14 15 16 17 18 19 20 21 22 23 24 25
197
FTUS46 KPDT 171731
TAFALW
TAF
KALW 171731Z 1718/1818 19005KT 1/4SM FG VV002
      TEMPO 1718/1719 1SM BR BKN002 OVC050
     FM171900 16008KT 6SM BR SCT005 OVC050
     FM180100 17012KT P6SM SCT050 OVC100
     FM180600 16015G20KT P6SM SCT040 BKN080
     FM181000 19012G18KT 5SM -RA BR SCT020 OVC035=

USA.gov is the U.S. government's official web portal to all federal, state and local government web resources and services.